Terminal Aerodrome Forecast
Issued by NWS Denver/Boulder, CO

Home | Current Version | Previous Version | Text Only | Print | Product List | Glossary On
Versions: 1 2 3 4 5 6 7 8 9 10 11 12 13 14 15 16 17 18 19 20 21 22 23 24 25 26 27 28 29 30 31 32 33 34 35 36 37 38 39 40 41 42 43 44 45 46 47 48 49 50
000
FTUS45 KBOU 030528
TAFDEN
TAF
KDEN 030528Z 0306/0412 20013KT P6SM FEW140 SCT200
     FM031400 25007KT P6SM SCT150 BKN200
     FM031700 06007KT P6SM FEW080 SCT150 BKN200
     FM032100 08008KT P6SM VCTS SCT080CB BKN120
      TEMPO 0322/0402 VRB15G30KT -TSRA BKN060CB
     FM040200 01012KT P6SM -SHRA SCT030 OVC050
     FM040500 05009KT P6SM -SHRA SCT020 OVC040
     FM040800 07005KT 3SM -SHRA BR SCT008 BKN012 OVC020=

USA.gov is the U.S. government's official web portal to all federal, state and local government web resources and services.